sensor_id;sensor_type;location;lat;lon;timestamp;P1;durP1;ratioP1;P2;durP2;ratioP2
69890;SDS011;57170;43.964;21.262;2022-11-20T00:00:43;33.55;;;16.40;;
69890;SDS011;57170;43.964;21.262;2022-11-20T00:03:10;23.27;;;16.40;;
69890;SDS011;57170;43.964;21.262;2022-11-20T00:05:36;17.88;;;15.55;;
69890;SDS011;57170;43.964;21.262;2022-11-20T00:08:02;22.48;;;18.95;;
69890;SDS011;57170;43.964;21.262;2022-11-20T00:10:28;38.40;;;27.55;;
69890;SDS011;57170;43.964;21.262;2022-11-20T00:12:54;26.65;;;21.50;;
69890;SDS011;57170;43.964;21.262;2022-11-20T00:15:20;27.40;;;19.90;;
69890;SDS011;57170;43.964;21.262;2022-11-20T00:17:46;32.83;;;24.02;;
69890;SDS011;57170;43.964;21.262;2022-11-20T00:20:12;33.78;;;22.58;;
69890;SDS011;57170;43.964;21.262;2022-11-20T00:22:38;25.95;;;19.38;;
69890;SDS011;57170;43.964;21.262;2022-11-20T00:25:04;19.77;;;16.50;;
69890;SDS011;57170;43.964;21.262;2022-11-20T00:27:31;27.63;;;21.05;;
69890;SDS011;57170;43.964;21.262;2022-11-20T00:29:57;29.13;;;23.05;;
69890;SDS011;57170;43.964;21.262;2022-11-20T00:32:23;28.60;;;24.42;;
69890;SDS011;57170;43.964;21.262;2022-11-20T00:34:49;23.35;;;20.83;;
69890;SDS011;57170;43.964;21.262;2022-11-20T00:37:15;23.13;;;19.27;;
69890;SDS011;57170;43.964;21.262;2022-11-20T00:39:41;31.10;;;24.60;;
69890;SDS011;57170;43.964;21.262;2022-11-20T00:42:07;33.03;;;26.67;;
69890;SDS011;57170;43.964;21.262;2022-11-20T00:44:33;30.92;;;27.15;;
69890;SDS011;57170;43.964;21.262;2022-11-20T00:46:59;43.63;;;32.22;;
69890;SDS011;57170;43.964;21.262;2022-11-20T00:49:25;43.17;;;33.38;;
69890;SDS011;57170;43.964;21.262;2022-11-20T00:51:52;64.72;;;47.80;;
69890;SDS011;57170;43.964;21.262;2022-11-20T00:54:18;53.40;;;40.95;;
69890;SDS011;57170;43.964;21.262;2022-11-20T00:56:44;55.90;;;45.20;;
69890;SDS011;57170;43.964;21.262;2022-11-20T00:59:10;48.70;;;39.17;;
69890;SDS011;57170;43.964;21.262;2022-11-20T01:01:36;51.25;;;38.80;;
69890;SDS011;57170;43.964;21.262;2022-11-20T01:04:02;44.88;;;35.72;;
69890;SDS011;57170;43.964;21.262;2022-11-20T01:06:30;45.97;;;35.75;;
69890;SDS011;57170;43.964;21.262;2022-11-20T01:08:57;45.50;;;35.45;;
69890;SDS011;57170;43.964;21.262;2022-11-20T01:11:24;39.55;;;30.10;;
69890;SDS011;57170;43.964;21.262;2022-11-20T01:13:51;36.35;;;30.17;;
69890;SDS011;57170;43.964;21.262;2022-11-20T01:18:45;34.67;;;28.90;;
69890;SDS011;57170;43.964;21.262;2022-11-20T01:21:13;29.20;;;23.45;;
69890;SDS011;57170;43.964;21.262;2022-11-20T01:23:40;30.38;;;22.80;;
69890;SDS011;57170;43.964;21.262;2022-11-20T01:26:08;24.75;;;20.25;;
69890;SDS011;57170;43.964;21.262;2022-11-20T01:28:34;29.35;;;23.38;;
69890;SDS011;57170;43.964;21.262;2022-11-20T01:31:01;33.53;;;24.10;;
69890;SDS011;57170;43.964;21.262;2022-11-20T01:33:27;31.00;;;25.02;;
69890;SDS011;57170;43.964;21.262;2022-11-20T01:35:53;30.38;;;25.55;;
69890;SDS011;57170;43.964;21.262;2022-11-20T01:38:28;32.17;;;23.38;;
69890;SDS011;57170;43.964;21.262;2022-11-20T01:40:54;27.83;;;24.17;;
69890;SDS011;57170;43.964;21.262;2022-11-20T01:43:21;28.20;;;22.45;;
69890;SDS011;57170;43.964;21.262;2022-11-20T01:45:58;21.20;;;18.23;;
69890;SDS011;57170;43.964;21.262;2022-11-20T01:48:26;22.02;;;18.73;;
69890;SDS011;57170;43.964;21.262;2022-11-20T01:50:54;26.92;;;19.35;;
69890;SDS011;57170;43.964;21.262;2022-11-20T01:53:21;44.33;;;25.83;;
69890;SDS011;57170;43.964;21.262;2022-11-20T01:55:51;46.75;;;25.02;;
69890;SDS011;57170;43.964;21.262;2022-11-20T01:58:19;35.90;;;25.15;;
69890;SDS011;57170;43.964;21.262;2022-11-20T02:00:46;33.45;;;24.67;;
69890;SDS011;57170;43.964;21.262;2022-11-20T02:03:13;36.92;;;25.63;;
69890;SDS011;57170;43.964;21.262;2022-11-20T02:08:26;20.25;;;14.70;;
69890;SDS011;57170;43.964;21.262;2022-11-20T02:10:52;27.10;;;16.90;;
69890;SDS011;57170;43.964;21.262;2022-11-20T02:13:18;22.27;;;15.38;;
69890;SDS011;57170;43.964;21.262;2022-11-20T02:16:03;33.75;;;16.95;;
69890;SDS011;57170;43.964;21.262;2022-11-20T02:18:29;28.30;;;18.55;;
69890;SDS011;57170;43.964;21.262;2022-11-20T02:21:59;27.73;;;17.33;;
69890;SDS011;57170;43.964;21.262;2022-11-20T02:26:20;26.55;;;19.92;;
69890;SDS011;57170;43.964;21.262;2022-11-20T02:28:47;29.42;;;19.50;;
69890;SDS011;57170;43.964;21.262;2022-11-20T02:31:14;25.65;;;19.40;;
69890;SDS011;57170;43.964;21.262;2022-11-20T02:33:40;33.30;;;16.58;;
69890;SDS011;57170;43.964;21.262;2022-11-20T02:36:07;22.52;;;15.88;;
69890;SDS011;57170;43.964;21.262;2022-11-20T02:38:34;20.65;;;14.80;;
69890;SDS011;57170;43.964;21.262;2022-11-20T02:41:00;27.52;;;17.55;;
69890;SDS011;57170;43.964;21.262;2022-11-20T02:43:26;28.20;;;13.82;;
69890;SDS011;57170;43.964;21.262;2022-11-20T02:45:52;19.65;;;14.32;;
69890;SDS011;57170;43.964;21.262;2022-11-20T02:48:18;20.17;;;13.70;;
69890;SDS011;57170;43.964;21.262;2022-11-20T02:50:44;26.83;;;13.95;;
69890;SDS011;57170;43.964;21.262;2022-11-20T02:53:10;14.35;;;9.35;;
69890;SDS011;57170;43.964;21.262;2022-11-20T02:55:36;16.65;;;8.20;;
69890;SDS011;57170;43.964;21.262;2022-11-20T02:58:02;18.13;;;9.93;;
69890;SDS011;57170;43.964;21.262;2022-11-20T03:00:29;19.67;;;11.95;;
69890;SDS011;57170;43.964;21.262;2022-11-20T03:02:55;15.73;;;10.75;;
69890;SDS011;57170;43.964;21.262;2022-11-20T03:05:21;13.45;;;9.35;;
69890;SDS011;57170;43.964;21.262;2022-11-20T03:07:47;17.60;;;13.75;;
69890;SDS011;57170;43.964;21.262;2022-11-20T03:10:14;14.15;;;10.75;;
69890;SDS011;57170;43.964;21.262;2022-11-20T03:12:40;21.55;;;17.65;;
69890;SDS011;57170;43.964;21.262;2022-11-20T03:15:06;30.50;;;20.48;;
69890;SDS011;57170;43.964;21.262;2022-11-20T03:17:32;46.95;;;28.90;;
69890;SDS011;57170;43.964;21.262;2022-11-20T03:19:58;36.20;;;26.83;;
69890;SDS011;57170;43.964;21.262;2022-11-20T03:22:24;36.00;;;25.45;;
69890;SDS011;57170;43.964;21.262;2022-11-20T03:24:50;33.45;;;24.30;;
69890;SDS011;57170;43.964;21.262;2022-11-20T03:27:17;45.45;;;29.70;;
69890;SDS011;57170;43.964;21.262;2022-11-20T03:29:43;34.65;;;25.27;;
69890;SDS011;57170;43.964;21.262;2022-11-20T03:32:09;36.20;;;25.33;;
69890;SDS011;57170;43.964;21.262;2022-11-20T03:34:35;27.38;;;20.30;;
69890;SDS011;57170;43.964;21.262;2022-11-20T03:37:01;27.52;;;20.42;;
69890;SDS011;57170;43.964;21.262;2022-11-20T03:39:27;27.90;;;17.40;;
69890;SDS011;57170;43.964;21.262;2022-11-20T03:41:53;10.07;;;6.78;;
69890;SDS011;57170;43.964;21.262;2022-11-20T03:44:20;22.42;;;8.23;;
69890;SDS011;57170;43.964;21.262;2022-11-20T03:46:46;8.57;;;6.93;;
69890;SDS011;57170;43.964;21.262;2022-11-20T03:49:13;6.93;;;3.95;;
69890;SDS011;57170;43.964;21.262;2022-11-20T03:51:39;13.77;;;5.80;;
69890;SDS011;57170;43.964;21.262;2022-11-20T03:54:06;8.32;;;5.22;;
69890;SDS011;57170;43.964;21.262;2022-11-20T03:56:33;6.93;;;4.65;;
69890;SDS011;57170;43.964;21.262;2022-11-20T03:58:59;5.75;;;3.78;;
69890;SDS011;57170;43.964;21.262;2022-11-20T04:01:27;10.40;;;6.53;;
69890;SDS011;57170;43.964;21.262;2022-11-20T04:03:54;7.50;;;4.80;;
69890;SDS011;57170;43.964;21.262;2022-11-20T04:06:21;9.55;;;7.40;;
69890;SDS011;57170;43.964;21.262;2022-11-20T04:08:47;10.77;;;7.07;;
69890;SDS011;57170;43.964;21.262;2022-11-20T04:11:18;8.70;;;6.38;;
69890;SDS011;57170;43.964;21.262;2022-11-20T04:13:48;6.53;;;5.03;;
69890;SDS011;57170;43.964;21.262;2022-11-20T04:16:14;8.50;;;5.22;;
69890;SDS011;57170;43.964;21.262;2022-11-20T04:18:40;5.35;;;3.83;;
69890;SDS011;57170;43.964;21.262;2022-11-20T04:21:07;10.32;;;4.85;;
69890;SDS011;57170;43.964;21.262;2022-11-20T04:23:33;8.73;;;6.90;;
69890;SDS011;57170;43.964;21.262;2022-11-20T04:26:06;9.30;;;6.40;;
69890;SDS011;57170;43.964;21.262;2022-11-20T04:31:02;16.15;;;10.27;;
69890;SDS011;57170;43.964;21.262;2022-11-20T04:33:29;7.18;;;5.45;;
69890;SDS011;57170;43.964;21.262;2022-11-20T04:35:55;9.30;;;5.00;;
69890;SDS011;57170;43.964;21.262;2022-11-20T04:38:21;8.75;;;4.68;;
69890;SDS011;57170;43.964;21.262;2022-11-20T04:40:47;8.75;;;5.22;;
69890;SDS011;57170;43.964;21.262;2022-11-20T04:43:13;7.18;;;4.60;;
69890;SDS011;57170;43.964;21.262;2022-11-20T04:45:39;5.82;;;4.20;;
69890;SDS011;57170;43.964;21.262;2022-11-20T04:48:05;16.00;;;14.32;;
69890;SDS011;57170;43.964;21.262;2022-11-20T04:50:31;7.00;;;4.75;;
69890;SDS011;57170;43.964;21.262;2022-11-20T04:52:57;8.43;;;4.57;;
69890;SDS011;57170;43.964;21.262;2022-11-20T04:55:23;7.93;;;5.43;;
69890;SDS011;57170;43.964;21.262;2022-11-20T04:57:50;62.00;;;56.88;;
69890;SDS011;57170;43.964;21.262;2022-11-20T05:00:16;17.70;;;14.50;;
69890;SDS011;57170;43.964;21.262;2022-11-20T05:02:42;16.27;;;14.15;;
69890;SDS011;57170;43.964;21.262;2022-11-20T05:05:08;16.77;;;11.82;;
69890;SDS011;57170;43.964;21.262;2022-11-20T05:07:34;18.17;;;12.82;;
69890;SDS011;57170;43.964;21.262;2022-11-20T05:10:00;13.73;;;9.68;;
69890;SDS011;57170;43.964;21.262;2022-11-20T05:12:27;13.45;;;9.20;;
69890;SDS011;57170;43.964;21.262;2022-11-20T05:14:53;13.25;;;10.50;;
69890;SDS011;57170;43.964;21.262;2022-11-20T05:17:19;14.88;;;12.23;;
69890;SDS011;57170;43.964;21.262;2022-11-20T05:19:45;14.18;;;10.70;;
69890;SDS011;57170;43.964;21.262;2022-11-20T05:22:11;15.00;;;11.75;;
69890;SDS011;57170;43.964;21.262;2022-11-20T05:24:38;19.52;;;13.40;;
69890;SDS011;57170;43.964;21.262;2022-11-20T05:27:04;15.05;;;11.98;;
69890;SDS011;57170;43.964;21.262;2022-11-20T05:29:30;17.08;;;12.07;;
69890;SDS011;57170;43.964;21.262;2022-11-20T05:31:56;17.52;;;11.95;;
69890;SDS011;57170;43.964;21.262;2022-11-20T05:34:22;21.00;;;17.13;;
69890;SDS011;57170;43.964;21.262;2022-11-20T05:36:48;16.00;;;12.63;;
69890;SDS011;57170;43.964;21.262;2022-11-20T05:39:14;19.92;;;15.32;;
69890;SDS011;57170;43.964;21.262;2022-11-20T05:41:40;22.40;;;17.75;;
69890;SDS011;57170;43.964;21.262;2022-11-20T05:44:07;29.23;;;20.67;;
69890;SDS011;57170;43.964;21.262;2022-11-20T05:46:33;26.70;;;20.38;;
69890;SDS011;57170;43.964;21.262;2022-11-20T05:48:59;35.58;;;24.83;;
69890;SDS011;57170;43.964;21.262;2022-11-20T05:51:25;25.95;;;20.67;;
69890;SDS011;57170;43.964;21.262;2022-11-20T05:53:51;16.95;;;14.93;;
69890;SDS011;57170;43.964;21.262;2022-11-20T05:56:19;26.63;;;14.75;;
69890;SDS011;57170;43.964;21.262;2022-11-20T05:58:45;4.93;;;3.03;;
69890;SDS011;57170;43.964;21.262;2022-11-20T06:01:19;5.45;;;4.25;;
69890;SDS011;57170;43.964;21.262;2022-11-20T06:03:45;5.15;;;3.25;;
69890;SDS011;57170;43.964;21.262;2022-11-20T06:06:13;5.30;;;3.35;;
69890;SDS011;57170;43.964;21.262;2022-11-20T06:08:39;5.28;;;2.97;;
69890;SDS011;57170;43.964;21.262;2022-11-20T06:11:06;4.72;;;2.90;;
69890;SDS011;57170;43.964;21.262;2022-11-20T06:13:33;4.30;;;2.95;;
69890;SDS011;57170;43.964;21.262;2022-11-20T06:15:59;5.50;;;2.95;;
69890;SDS011;57170;43.964;21.262;2022-11-20T06:18:28;4.85;;;3.05;;
69890;SDS011;57170;43.964;21.262;2022-11-20T06:21:02;7.30;;;5.72;;
69890;SDS011;57170;43.964;21.262;2022-11-20T06:23:29;12.65;;;9.52;;
69890;SDS011;57170;43.964;21.262;2022-11-20T06:25:55;12.18;;;9.30;;
69890;SDS011;57170;43.964;21.262;2022-11-20T06:28:21;9.90;;;7.53;;
69890;SDS011;57170;43.964;21.262;2022-11-20T06:30:47;10.75;;;8.73;;
69890;SDS011;57170;43.964;21.262;2022-11-20T06:33:13;17.35;;;12.02;;
69890;SDS011;57170;43.964;21.262;2022-11-20T06:35:39;8.95;;;7.57;;
69890;SDS011;57170;43.964;21.262;2022-11-20T06:38:06;7.38;;;4.13;;
69890;SDS011;57170;43.964;21.262;2022-11-20T06:40:32;4.00;;;2.25;;
69890;SDS011;57170;43.964;21.262;2022-11-20T06:42:58;3.63;;;2.30;;
69890;SDS011;57170;43.964;21.262;2022-11-20T06:45:24;7.75;;;4.95;;
69890;SDS011;57170;43.964;21.262;2022-11-20T06:47:50;18.75;;;12.02;;
69890;SDS011;57170;43.964;21.262;2022-11-20T06:50:16;13.90;;;11.70;;
69890;SDS011;57170;43.964;21.262;2022-11-20T06:52:42;16.77;;;13.35;;
69890;SDS011;57170;43.964;21.262;2022-11-20T06:55:08;18.20;;;14.60;;
69890;SDS011;57170;43.964;21.262;2022-11-20T06:57:34;17.05;;;13.93;;
69890;SDS011;57170;43.964;21.262;2022-11-20T07:00:00;17.13;;;13.77;;
69890;SDS011;57170;43.964;21.262;2022-11-20T07:02:26;9.40;;;7.88;;
69890;SDS011;57170;43.964;21.262;2022-11-20T07:04:53;4.38;;;2.90;;
69890;SDS011;57170;43.964;21.262;2022-11-20T07:07:19;3.00;;;1.90;;
69890;SDS011;57170;43.964;21.262;2022-11-20T07:09:45;3.63;;;1.60;;
69890;SDS011;57170;43.964;21.262;2022-11-20T07:12:11;3.05;;;1.90;;
69890;SDS011;57170;43.964;21.262;2022-11-20T07:14:37;3.70;;;2.05;;
69890;SDS011;57170;43.964;21.262;2022-11-20T07:17:03;3.50;;;2.00;;
69890;SDS011;57170;43.964;21.262;2022-11-20T07:19:29;3.13;;;1.83;;
69890;SDS011;57170;43.964;21.262;2022-11-20T07:21:55;6.03;;;3.90;;
69890;SDS011;57170;43.964;21.262;2022-11-20T07:24:21;6.47;;;3.97;;
69890;SDS011;57170;43.964;21.262;2022-11-20T07:26:47;8.98;;;4.93;;
69890;SDS011;57170;43.964;21.262;2022-11-20T07:29:16;6.03;;;3.80;;
69890;SDS011;57170;43.964;21.262;2022-11-20T07:31:42;4.72;;;3.33;;
69890;SDS011;57170;43.964;21.262;2022-11-20T07:34:08;4.30;;;2.67;;
69890;SDS011;57170;43.964;21.262;2022-11-20T07:36:35;6.38;;;2.95;;
69890;SDS011;57170;43.964;21.262;2022-11-20T07:39:01;6.78;;;2.42;;
69890;SDS011;57170;43.964;21.262;2022-11-20T07:41:27;4.80;;;2.75;;
69890;SDS011;57170;43.964;21.262;2022-11-20T07:43:54;4.65;;;2.83;;
69890;SDS011;57170;43.964;21.262;2022-11-20T07:46:20;4.90;;;2.90;;
69890;SDS011;57170;43.964;21.262;2022-11-20T07:48:46;6.20;;;4.28;;
69890;SDS011;57170;43.964;21.262;2022-11-20T07:51:12;12.05;;;10.85;;
69890;SDS011;57170;43.964;21.262;2022-11-20T07:53:38;11.13;;;7.35;;
69890;SDS011;57170;43.964;21.262;2022-11-20T07:56:04;13.23;;;11.75;;
69890;SDS011;57170;43.964;21.262;2022-11-20T07:58:31;18.27;;;16.33;;
69890;SDS011;57170;43.964;21.262;2022-11-20T08:01:06;21.75;;;16.83;;
69890;SDS011;57170;43.964;21.262;2022-11-20T08:03:32;29.77;;;22.95;;
69890;SDS011;57170;43.964;21.262;2022-11-20T08:05:59;27.55;;;24.50;;
69890;SDS011;57170;43.964;21.262;2022-11-20T08:08:28;26.58;;;23.02;;
69890;SDS011;57170;43.964;21.262;2022-11-20T08:10:57;22.40;;;17.92;;
69890;SDS011;57170;43.964;21.262;2022-11-20T08:13:42;22.45;;;19.10;;
69890;SDS011;57170;43.964;21.262;2022-11-20T08:16:27;29.65;;;23.63;;
69890;SDS011;57170;43.964;21.262;2022-11-20T08:18:54;30.42;;;23.05;;
69890;SDS011;57170;43.964;21.262;2022-11-20T08:21:20;32.75;;;24.67;;
69890;SDS011;57170;43.964;21.262;2022-11-20T08:23:46;41.97;;;33.88;;
69890;SDS011;57170;43.964;21.262;2022-11-20T08:26:12;31.38;;;25.35;;
69890;SDS011;57170;43.964;21.262;2022-11-20T08:28:38;22.38;;;19.98;;
69890;SDS011;57170;43.964;21.262;2022-11-20T08:31:04;22.25;;;19.08;;
69890;SDS011;57170;43.964;21.262;2022-11-20T08:33:30;25.90;;;20.33;;
69890;SDS011;57170;43.964;21.262;2022-11-20T08:35:58;17.65;;;12.48;;
69890;SDS011;57170;43.964;21.262;2022-11-20T08:38:24;38.92;;;30.48;;
69890;SDS011;57170;43.964;21.262;2022-11-20T08:40:51;38.20;;;31.23;;
69890;SDS011;57170;43.964;21.262;2022-11-20T08:43:40;28.48;;;22.88;;
69890;SDS011;57170;43.964;21.262;2022-11-20T08:46:06;48.13;;;34.13;;
69890;SDS011;57170;43.964;21.262;2022-11-20T08:48:32;36.80;;;29.90;;
69890;SDS011;57170;43.964;21.262;2022-11-20T08:50:58;64.47;;;58.05;;
69890;SDS011;57170;43.964;21.262;2022-11-20T08:53:25;17.10;;;12.02;;
69890;SDS011;57170;43.964;21.262;2022-11-20T08:55:51;6.57;;;4.70;;
69890;SDS011;57170;43.964;21.262;2022-11-20T08:58:17;6.40;;;5.22;;
69890;SDS011;57170;43.964;21.262;2022-11-20T09:00:43;15.45;;;13.95;;
69890;SDS011;57170;43.964;21.262;2022-11-20T09:03:09;6.30;;;5.60;;
69890;SDS011;57170;43.964;21.262;2022-11-20T09:05:36;8.88;;;6.70;;
69890;SDS011;57170;43.964;21.262;2022-11-20T09:08:02;8.50;;;5.72;;
69890;SDS011;57170;43.964;21.262;2022-11-20T09:10:28;7.72;;;6.78;;
69890;SDS011;57170;43.964;21.262;2022-11-20T09:12:55;40.72;;;35.05;;
69890;SDS011;57170;43.964;21.262;2022-11-20T09:15:21;49.78;;;39.88;;
69890;SDS011;57170;43.964;21.262;2022-11-20T09:18:06;44.08;;;38.90;;
69890;SDS011;57170;43.964;21.262;2022-11-20T09:20:32;55.65;;;45.45;;
69890;SDS011;57170;43.964;21.262;2022-11-20T09:22:58;62.40;;;50.17;;
69890;SDS011;57170;43.964;21.262;2022-11-20T09:25:24;36.30;;;29.05;;
69890;SDS011;57170;43.964;21.262;2022-11-20T09:27:57;42.80;;;32.80;;
69890;SDS011;57170;43.964;21.262;2022-11-20T09:30:24;48.72;;;40.08;;
69890;SDS011;57170;43.964;21.262;2022-11-20T09:32:50;47.65;;;37.92;;
69890;SDS011;57170;43.964;21.262;2022-11-20T09:35:16;41.80;;;34.45;;
69890;SDS011;57170;43.964;21.262;2022-11-20T09:37:43;43.40;;;33.30;;
69890;SDS011;57170;43.964;21.262;2022-11-20T09:42:56;51.72;;;37.88;;
69890;SDS011;57170;43.964;21.262;2022-11-20T09:50:31;81.95;;;63.75;;
69890;SDS011;57170;43.964;21.262;2022-11-20T09:55:24;77.28;;;51.08;;
69890;SDS011;57170;43.964;21.262;2022-11-20T09:57:50;67.22;;;48.92;;
69890;SDS011;57170;43.964;21.262;2022-11-20T10:00:17;68.45;;;48.63;;
69890;SDS011;57170;43.964;21.262;2022-11-20T10:02:48;64.85;;;49.88;;
69890;SDS011;57170;43.964;21.262;2022-11-20T10:26:02;77.03;;;55.45;;
69890;SDS011;57170;43.964;21.262;2022-11-20T10:31:17;68.22;;;45.53;;
69890;SDS011;57170;43.964;21.262;2022-11-20T10:33:47;69.93;;;46.95;;
69890;SDS011;57170;43.964;21.262;2022-11-20T10:36:19;71.57;;;46.03;;
69890;SDS011;57170;43.964;21.262;2022-11-20T10:39:11;73.28;;;46.53;;
69890;SDS011;57170;43.964;21.262;2022-11-20T10:41:34;64.70;;;41.90;;
69890;SDS011;57170;43.964;21.262;2022-11-20T10:44:03;61.42;;;40.08;;
69890;SDS011;57170;43.964;21.262;2022-11-20T10:46:38;50.75;;;39.03;;
69890;SDS011;57170;43.964;21.262;2022-11-20T10:49:13;58.63;;;41.75;;
69890;SDS011;57170;43.964;21.262;2022-11-20T10:51:44;63.00;;;45.38;;
69890;SDS011;57170;43.964;21.262;2022-11-20T10:56:46;62.22;;;41.03;;
69890;SDS011;57170;43.964;21.262;2022-11-20T11:01:41;67.20;;;45.38;;
69890;SDS011;57170;43.964;21.262;2022-11-20T11:06:49;59.60;;;43.00;;
69890;SDS011;57170;43.964;21.262;2022-11-20T11:09:16;61.78;;;44.95;;
69890;SDS011;57170;43.964;21.262;2022-11-20T11:11:42;59.75;;;43.08;;
69890;SDS011;57170;43.964;21.262;2022-11-20T11:14:15;66.50;;;46.75;;
69890;SDS011;57170;43.964;21.262;2022-11-20T11:19:16;62.03;;;44.47;;
69890;SDS011;57170;43.964;21.262;2022-11-20T11:21:49;65.75;;;46.00;;
69890;SDS011;57170;43.964;21.262;2022-11-20T11:24:20;74.30;;;49.67;;
69890;SDS011;57170;43.964;21.262;2022-11-20T11:27:10;78.82;;;55.13;;
69890;SDS011;57170;43.964;21.262;2022-11-20T11:29:36;67.82;;;46.05;;
69890;SDS011;57170;43.964;21.262;2022-11-20T11:32:10;65.65;;;46.17;;
69890;SDS011;57170;43.964;21.262;2022-11-20T11:34:37;59.67;;;44.00;;
69890;SDS011;57170;43.964;21.262;2022-11-20T11:37:03;70.50;;;49.80;;
69890;SDS011;57170;43.964;21.262;2022-11-20T11:39:31;76.75;;;48.97;;
69890;SDS011;57170;43.964;21.262;2022-11-20T11:41:59;69.03;;;50.10;;
69890;SDS011;57170;43.964;21.262;2022-11-20T11:47:32;74.18;;;51.95;;
69890;SDS011;57170;43.964;21.262;2022-11-20T11:50:16;84.25;;;61.75;;
69890;SDS011;57170;43.964;21.262;2022-11-20T11:58:11;69.00;;;46.40;;
69890;SDS011;57170;43.964;21.262;2022-11-20T12:00:38;59.55;;;42.00;;
69890;SDS011;57170;43.964;21.262;2022-11-20T12:03:16;60.38;;;44.53;;
69890;SDS011;57170;43.964;21.262;2022-11-20T12:05:45;52.45;;;40.45;;
69890;SDS011;57170;43.964;21.262;2022-11-20T12:08:32;56.13;;;40.22;;
69890;SDS011;57170;43.964;21.262;2022-11-20T12:11:06;55.58;;;40.55;;
69890;SDS011;57170;43.964;21.262;2022-11-20T12:16:14;64.88;;;45.45;;
69890;SDS011;57170;43.964;21.262;2022-11-20T12:18:42;56.65;;;42.20;;
69890;SDS011;57170;43.964;21.262;2022-11-20T12:26:07;53.60;;;41.25;;
69890;SDS011;57170;43.964;21.262;2022-11-20T12:33:33;62.97;;;44.95;;
69890;SDS011;57170;43.964;21.262;2022-11-20T12:36:13;69.40;;;50.72;;
69890;SDS011;57170;43.964;21.262;2022-11-20T12:47:08;69.85;;;47.40;;
69890;SDS011;57170;43.964;21.262;2022-11-20T12:55:12;87.70;;;57.90;;
69890;SDS011;57170;43.964;21.262;2022-11-20T12:58:04;76.18;;;52.00;;
69890;SDS011;57170;43.964;21.262;2022-11-20T13:00:26;78.28;;;52.50;;
69890;SDS011;57170;43.964;21.262;2022-11-20T13:03:00;78.05;;;52.78;;
69890;SDS011;57170;43.964;21.262;2022-11-20T13:08:03;103.15;;;74.90;;
69890;SDS011;57170;43.964;21.262;2022-11-20T13:10:32;89.32;;;58.85;;
69890;SDS011;57170;43.964;21.262;2022-11-20T13:13:12;68.50;;;47.08;;
69890;SDS011;57170;43.964;21.262;2022-11-20T13:16:01;70.50;;;47.92;;
69890;SDS011;57170;43.964;21.262;2022-11-20T13:18:28;67.75;;;45.47;;
69890;SDS011;57170;43.964;21.262;2022-11-20T13:20:56;79.60;;;48.78;;
69890;SDS011;57170;43.964;21.262;2022-11-20T13:23:22;72.47;;;48.75;;
69890;SDS011;57170;43.964;21.262;2022-11-20T13:25:49;91.15;;;59.65;;
69890;SDS011;57170;43.964;21.262;2022-11-20T13:31:01;66.07;;;44.28;;
69890;SDS011;57170;43.964;21.262;2022-11-20T13:33:31;60.80;;;43.78;;
69890;SDS011;57170;43.964;21.262;2022-11-20T13:36:02;60.97;;;44.53;;
69890;SDS011;57170;43.964;21.262;2022-11-20T13:38:40;72.95;;;45.38;;
69890;SDS011;57170;43.964;21.262;2022-11-20T13:41:06;77.90;;;48.03;;
69890;SDS011;57170;43.964;21.262;2022-11-20T13:43:52;83.30;;;59.30;;
69890;SDS011;57170;43.964;21.262;2022-11-20T13:46:18;58.63;;;41.53;;
69890;SDS011;57170;43.964;21.262;2022-11-20T13:48:49;66.60;;;45.85;;
69890;SDS011;57170;43.964;21.262;2022-11-20T13:57:00;60.50;;;43.35;;
69890;SDS011;57170;43.964;21.262;2022-11-20T14:02:14;80.65;;;56.72;;
69890;SDS011;57170;43.964;21.262;2022-11-20T14:04:48;83.82;;;56.35;;
69890;SDS011;57170;43.964;21.262;2022-11-20T14:07:15;85.35;;;56.05;;
69890;SDS011;57170;43.964;21.262;2022-11-20T14:09:49;85.43;;;57.00;;
69890;SDS011;57170;43.964;21.262;2022-11-20T14:12:15;71.05;;;48.63;;
69890;SDS011;57170;43.964;21.262;2022-11-20T14:14:52;74.03;;;49.88;;
69890;SDS011;57170;43.964;21.262;2022-11-20T14:17:23;77.93;;;55.35;;
69890;SDS011;57170;43.964;21.262;2022-11-20T14:19:51;70.85;;;46.35;;
69890;SDS011;57170;43.964;21.262;2022-11-20T14:22:21;73.50;;;50.17;;
69890;SDS011;57170;43.964;21.262;2022-11-20T14:24:48;59.53;;;42.85;;
69890;SDS011;57170;43.964;21.262;2022-11-20T14:27:16;53.97;;;39.95;;
69890;SDS011;57170;43.964;21.262;2022-11-20T14:29:43;70.78;;;47.47;;
69890;SDS011;57170;43.964;21.262;2022-11-20T14:32:10;59.40;;;41.33;;
69890;SDS011;57170;43.964;21.262;2022-11-20T14:34:40;73.32;;;47.05;;
69890;SDS011;57170;43.964;21.262;2022-11-20T14:37:12;70.00;;;47.40;;
69890;SDS011;57170;43.964;21.262;2022-11-20T14:39:46;66.78;;;45.00;;
69890;SDS011;57170;43.964;21.262;2022-11-20T14:42:17;70.07;;;50.53;;
69890;SDS011;57170;43.964;21.262;2022-11-20T14:44:43;76.88;;;51.25;;
69890;SDS011;57170;43.964;21.262;2022-11-20T14:47:15;61.47;;;45.00;;
69890;SDS011;57170;43.964;21.262;2022-11-20T14:49:43;71.93;;;49.17;;
69890;SDS011;57170;43.964;21.262;2022-11-20T14:52:11;59.97;;;43.00;;
69890;SDS011;57170;43.964;21.262;2022-11-20T14:54:48;58.83;;;38.47;;
69890;SDS011;57170;43.964;21.262;2022-11-20T14:59:47;65.60;;;43.65;;
69890;SDS011;57170;43.964;21.262;2022-11-20T15:02:13;82.90;;;56.50;;
69890;SDS011;57170;43.964;21.262;2022-11-20T15:07:11;63.60;;;44.80;;
69890;SDS011;57170;43.964;21.262;2022-11-20T15:09:58;61.05;;;45.10;;
69890;SDS011;57170;43.964;21.262;2022-11-20T15:12:24;59.85;;;44.67;;
69890;SDS011;57170;43.964;21.262;2022-11-20T15:14:51;60.42;;;47.38;;
69890;SDS011;57170;43.964;21.262;2022-11-20T15:17:17;78.32;;;57.65;;
69890;SDS011;57170;43.964;21.262;2022-11-20T15:19:43;64.38;;;45.35;;
69890;SDS011;57170;43.964;21.262;2022-11-20T15:22:11;69.60;;;50.00;;
69890;SDS011;57170;43.964;21.262;2022-11-20T15:24:43;57.35;;;41.28;;
69890;SDS011;57170;43.964;21.262;2022-11-20T15:27:09;60.55;;;42.30;;
69890;SDS011;57170;43.964;21.262;2022-11-20T15:29:36;70.70;;;48.22;;
69890;SDS011;57170;43.964;21.262;2022-11-20T15:32:02;61.88;;;38.53;;
69890;SDS011;57170;43.964;21.262;2022-11-20T15:34:28;61.30;;;48.40;;
69890;SDS011;57170;43.964;21.262;2022-11-20T15:36:54;70.28;;;49.58;;
69890;SDS011;57170;43.964;21.262;2022-11-20T15:39:20;74.50;;;52.33;;
69890;SDS011;57170;43.964;21.262;2022-11-20T15:41:46;56.08;;;40.40;;
69890;SDS011;57170;43.964;21.262;2022-11-20T15:44:13;65.80;;;46.63;;
69890;SDS011;57170;43.964;21.262;2022-11-20T15:46:40;49.17;;;36.72;;
69890;SDS011;57170;43.964;21.262;2022-11-20T15:49:13;52.88;;;38.92;;
69890;SDS011;57170;43.964;21.262;2022-11-20T15:54:17;59.03;;;41.00;;
69890;SDS011;57170;43.964;21.262;2022-11-20T15:56:45;53.05;;;39.15;;
69890;SDS011;57170;43.964;21.262;2022-11-20T15:59:11;45.75;;;35.38;;
69890;SDS011;57170;43.964;21.262;2022-11-20T16:01:40;43.88;;;34.03;;
69890;SDS011;57170;43.964;21.262;2022-11-20T16:04:12;45.95;;;33.90;;
69890;SDS011;57170;43.964;21.262;2022-11-20T16:09:06;45.17;;;34.47;;
69890;SDS011;57170;43.964;21.262;2022-11-20T16:11:32;48.05;;;33.25;;